createdAt,value
2022-10-20T00:02:13.139Z,7.50
2022-10-20T00:05:01.076Z,7.50
2022-10-20T00:07:48.929Z,7.50
2022-10-20T00:10:36.920Z,7.50
2022-10-20T00:13:26.381Z,7.50
2022-10-20T00:16:14.791Z,7.50
2022-10-20T00:19:02.630Z,7.50
2022-10-20T00:21:50.481Z,7.40
2022-10-20T00:24:38.414Z,7.40
2022-10-20T00:27:26.301Z,7.40
2022-10-20T00:30:15.557Z,7.40
2022-10-20T00:33:03.765Z,7.30
2022-10-20T00:35:51.667Z,7.40
2022-10-20T00:38:39.519Z,7.40
2022-10-20T00:41:28.258Z,7.30
2022-10-20T00:44:34.992Z,7.30
2022-10-20T00:47:29.527Z,7.30
2022-10-20T00:50:18.739Z,7.30
2022-10-20T00:53:06.723Z,7.30
2022-10-20T00:55:56.364Z,7.30
2022-10-20T00:58:44.742Z,7.20
2022-10-20T01:01:33.050Z,7.30
2022-10-20T01:04:22.819Z,7.30
2022-10-20T01:07:10.660Z,7.30
2022-10-20T01:09:58.566Z,7.30
2022-10-20T01:12:48.669Z,7.30
2022-10-20T01:15:42.408Z,7.30
2022-10-20T01:18:31.918Z,7.20
2022-10-20T01:21:32.834Z,7.20
2022-10-20T01:24:31.773Z,7.20
2022-10-20T01:27:32.108Z,7.10
2022-10-20T01:30:21.208Z,7.10
2022-10-20T01:33:12.947Z,7.10
2022-10-20T01:36:03.734Z,7.20
2022-10-20T01:38:55.128Z,7.40
2022-10-20T01:41:44.245Z,7.40
2022-10-20T01:44:35.714Z,7.40
2022-10-20T01:47:25.411Z,7.40
2022-10-20T01:50:13.721Z,7.30
2022-10-20T01:53:01.748Z,7.30
2022-10-20T01:55:51.766Z,7.20
2022-10-20T01:59:06.872Z,7.10
2022-10-20T02:02:13.151Z,7.10
2022-10-20T02:05:06.673Z,7.00
2022-10-20T02:07:55.433Z,7.00
2022-10-20T02:10:45.867Z,6.90
2022-10-20T02:13:36.725Z,6.90
2022-10-20T02:16:26.995Z,6.90
2022-10-20T02:19:18.073Z,6.90
2022-10-20T02:22:07.051Z,6.90
2022-10-20T02:24:54.990Z,6.90
2022-10-20T02:27:44.423Z,6.80
2022-10-20T02:30:32.667Z,6.90
2022-10-20T02:33:21.227Z,6.90
2022-10-20T02:36:13.670Z,6.90
2022-10-20T02:39:01.546Z,7.10
2022-10-20T02:41:49.445Z,7.10
2022-10-20T02:44:37.337Z,7.00
2022-10-20T02:47:25.245Z,7.00
2022-10-20T02:50:13.291Z,6.90
2022-10-20T02:53:02.510Z,6.90
2022-10-20T02:55:50.428Z,6.90
2022-10-20T02:58:38.322Z,6.80
2022-10-20T03:01:26.221Z,6.70
2022-10-20T03:04:14.686Z,6.60
2022-10-20T03:07:02.757Z,6.60
2022-10-20T03:09:52.047Z,6.50
2022-10-20T03:12:39.924Z,6.50
2022-10-20T03:15:27.826Z,6.50
2022-10-20T03:18:15.713Z,6.40
2022-10-20T03:21:03.617Z,6.40
2022-10-20T03:23:51.589Z,6.40
2022-10-20T03:26:40.812Z,6.40
2022-10-20T03:29:28.695Z,6.50
2022-10-20T03:32:16.625Z,6.50
2022-10-20T03:35:04.613Z,6.60
2022-10-20T03:37:52.463Z,6.50
2022-10-20T03:40:40.313Z,6.50
2022-10-20T03:43:29.539Z,6.50
2022-10-20T03:46:17.372Z,6.40
2022-10-20T03:49:05.247Z,6.40
2022-10-20T03:51:53.095Z,6.50
2022-10-20T03:54:41.781Z,6.50
2022-10-20T03:57:29.624Z,6.50
2022-10-20T04:00:19.096Z,6.50
2022-10-20T04:03:07.009Z,6.50
2022-10-20T04:05:54.868Z,6.50
2022-10-20T04:08:51.770Z,6.60
2022-10-20T04:11:39.794Z,6.60
2022-10-20T04:14:27.727Z,6.70
2022-10-20T04:17:16.956Z,6.80
2022-10-20T04:20:05.259Z,6.80
2022-10-20T04:22:53.112Z,6.80
2022-10-20T04:25:45.469Z,6.70
2022-10-20T04:28:33.378Z,6.60
2022-10-20T04:31:21.218Z,6.60
2022-10-20T04:34:10.755Z,6.50
2022-10-20T04:36:58.843Z,6.50
2022-10-20T04:39:46.793Z,6.40
2022-10-20T04:42:34.642Z,6.30
2022-10-20T04:45:22.569Z,6.30
2022-10-20T04:48:10.407Z,6.30
2022-10-20T04:51:03.646Z,6.20
2022-10-20T04:53:51.614Z,6.20
2022-10-20T04:56:39.627Z,6.20
2022-10-20T04:59:27.746Z,6.20
2022-10-20T05:02:15.607Z,6.30
2022-10-20T05:05:04.941Z,6.30
2022-10-20T05:07:54.452Z,6.40
2022-10-20T05:10:42.378Z,6.50
2022-10-20T05:13:30.622Z,6.50
2022-10-20T05:16:18.934Z,6.40
2022-10-20T05:19:06.858Z,6.40
2022-10-20T05:21:54.850Z,6.20
2022-10-20T05:24:44.104Z,6.20
2022-10-20T05:27:31.987Z,6.20
2022-10-20T05:30:19.878Z,6.20
2022-10-20T05:33:07.731Z,6.10
2022-10-20T05:35:55.596Z,6.10
2022-10-20T05:38:43.483Z,6.10
2022-10-20T05:41:37.837Z,6.10
2022-10-20T05:44:27.237Z,6.20
2022-10-20T05:47:15.218Z,6.20
2022-10-20T05:50:03.122Z,6.20
2022-10-20T05:52:50.971Z,6.20
2022-10-20T05:55:38.868Z,6.30
2022-10-20T05:58:28.042Z,6.30
2022-10-20T06:01:18.040Z,6.30
2022-10-20T06:04:06.236Z,6.20
2022-10-20T06:06:54.119Z,6.20
2022-10-20T06:09:42.150Z,6.20
2022-10-20T06:12:29.993Z,6.20
2022-10-20T06:15:19.293Z,6.20
2022-10-20T06:18:07.155Z,6.20
2022-10-20T06:21:00.406Z,6.10
2022-10-20T06:23:48.494Z,6.20
2022-10-20T06:26:37.401Z,6.20
2022-10-20T06:29:25.328Z,6.30
2022-10-20T06:32:18.120Z,6.40
2022-10-20T06:35:06.525Z,6.50
2022-10-20T06:37:54.352Z,6.60
2022-10-20T06:40:42.221Z,6.60
2022-10-20T06:43:30.255Z,6.80
2022-10-20T06:46:19.154Z,6.80
2022-10-20T06:49:08.826Z,6.80
2022-10-20T06:51:56.691Z,6.90
2022-10-20T06:54:44.613Z,7.00
2022-10-20T06:57:32.557Z,7.10
2022-10-20T07:00:20.471Z,7.20
2022-10-20T07:03:08.338Z,7.20
2022-10-20T07:05:57.930Z,7.20
2022-10-20T07:08:45.965Z,7.20
2022-10-20T07:11:33.886Z,7.30
2022-10-20T07:14:22.080Z,7.20
2022-10-20T07:17:09.919Z,7.20
2022-10-20T07:19:57.869Z,7.20
2022-10-20T07:22:47.065Z,7.30
2022-10-20T07:25:34.913Z,7.30
2022-10-20T07:28:23.787Z,7.30
2022-10-20T07:31:12.835Z,7.30
2022-10-20T07:34:13.223Z,7.30
2022-10-20T07:37:07.943Z,7.30
2022-10-20T07:39:57.131Z,7.40
2022-10-20T07:42:44.962Z,7.40
2022-10-20T07:45:32.847Z,7.40
2022-10-20T07:48:20.706Z,7.40
2022-10-20T07:51:15.844Z,7.50
2022-10-20T07:54:05.022Z,7.70
2022-10-20T07:56:54.246Z,7.80
2022-10-20T07:59:42.310Z,8.00
2022-10-20T08:02:30.145Z,8.10
2022-10-20T08:05:18.048Z,8.30
2022-10-20T08:08:06.134Z,8.40
2022-10-20T08:10:54.066Z,8.50
2022-10-20T08:13:43.288Z,8.60
2022-10-20T08:16:32.482Z,8.60
2022-10-20T08:22:31.747Z,8.80
2022-10-20T08:25:19.598Z,8.80
2022-10-20T08:28:07.648Z,8.90
2022-10-20T08:30:56.984Z,8.90
2022-10-20T08:33:48.827Z,9.00
2022-10-20T08:36:39.424Z,9.00
2022-10-20T08:39:27.427Z,9.10
2022-10-20T08:42:15.355Z,9.20
2022-10-20T08:45:03.265Z,9.30
2022-10-20T08:47:54.032Z,9.30
2022-10-20T08:50:45.065Z,9.40
2022-10-20T08:53:36.954Z,9.50
2022-10-20T08:56:25.818Z,9.60
2022-10-20T08:59:22.567Z,9.60
2022-10-20T09:02:15.543Z,9.70
2022-10-20T09:05:05.632Z,9.80
2022-10-20T09:07:53.602Z,9.90
2022-10-20T09:10:42.743Z,10.00
2022-10-20T09:13:32.177Z,10.10
2022-10-20T09:16:33.598Z,10.20
2022-10-20T09:19:30.515Z,10.30
2022-10-20T09:22:33.293Z,10.40
2022-10-20T09:25:24.103Z,10.50
2022-10-20T09:28:18.533Z,10.70
2022-10-20T09:31:20.985Z,10.70
2022-10-20T09:34:25.405Z,10.80
2022-10-20T09:37:14.280Z,10.80
2022-10-20T09:40:04.018Z,10.90
2022-10-20T09:42:53.864Z,10.90
2022-10-20T09:45:51.223Z,11.00
2022-10-20T09:48:40.470Z,11.00
2022-10-20T09:51:29.194Z,11.00
2022-10-20T09:54:18.253Z,11.10
2022-10-20T09:57:08.670Z,11.10
2022-10-20T10:00:01.272Z,11.20
2022-10-20T10:03:08.890Z,11.20
2022-10-20T10:05:57.968Z,11.30
2022-10-20T10:08:46.429Z,11.30
2022-10-20T10:11:35.574Z,11.40
2022-10-20T10:14:24.916Z,11.40
2022-10-20T10:17:12.790Z,11.50
2022-10-20T10:20:00.827Z,11.50
2022-10-20T10:22:48.762Z,11.50
2022-10-20T10:25:36.651Z,11.60
2022-10-20T10:28:37.784Z,11.60
2022-10-20T10:31:27.487Z,11.50
2022-10-20T10:34:36.001Z,11.50
2022-10-20T10:37:23.984Z,11.60
2022-10-20T10:40:16.348Z,11.60
2022-10-20T10:43:10.128Z,11.70
2022-10-20T10:45:58.571Z,11.70
2022-10-20T10:48:56.325Z,11.80
2022-10-20T10:51:49.230Z,11.90
2022-10-20T10:54:44.657Z,11.90
2022-10-20T10:57:33.417Z,12.00
2022-10-20T11:00:26.522Z,12.00
2022-10-20T11:03:23.512Z,12.00
2022-10-20T11:06:15.758Z,12.00
2022-10-20T11:09:16.243Z,12.00
2022-10-20T11:12:18.976Z,12.10
2022-10-20T11:15:14.590Z,12.00
2022-10-20T11:18:07.392Z,12.00
2022-10-20T11:21:00.620Z,12.00
2022-10-20T11:24:01.417Z,12.00
2022-10-20T11:26:53.455Z,12.00
2022-10-20T11:29:43.771Z,12.00
2022-10-20T11:35:32.623Z,12.00
2022-10-20T11:38:25.005Z,12.00
2022-10-20T11:41:17.540Z,12.00
2022-10-20T11:44:07.775Z,12.00
2022-10-20T11:46:58.681Z,12.00
2022-10-20T11:49:46.637Z,12.00
2022-10-20T11:52:43.057Z,12.00
2022-10-20T11:55:45.057Z,12.00
2022-10-20T11:58:45.083Z,12.00
2022-10-20T12:01:36.410Z,12.00
2022-10-20T12:04:51.421Z,12.00
2022-10-20T12:07:46.048Z,12.00
2022-10-20T12:10:36.436Z,12.00
2022-10-20T12:13:31.312Z,12.00
2022-10-20T12:16:34.072Z,12.00
2022-10-20T12:19:24.243Z,12.00
2022-10-20T12:22:30.778Z,12.10
2022-10-20T12:25:20.965Z,12.10
2022-10-20T12:28:27.927Z,12.10
2022-10-20T12:31:15.938Z,12.10
2022-10-20T12:34:04.379Z,12.10
2022-10-20T12:37:07.618Z,12.10
2022-10-20T12:39:56.618Z,12.10
2022-10-20T12:42:47.943Z,12.20
2022-10-20T12:45:38.364Z,12.20
2022-10-20T12:48:26.598Z,12.20
2022-10-20T12:51:18.990Z,12.20
2022-10-20T12:54:15.825Z,12.20
2022-10-20T12:57:04.920Z,12.20
2022-10-20T12:59:52.796Z,12.20
2022-10-20T13:02:48.152Z,12.30
2022-10-20T13:05:46.641Z,12.30
2022-10-20T13:08:34.716Z,12.30
2022-10-20T13:11:54.004Z,12.40
2022-10-20T13:14:50.942Z,12.50
2022-10-20T13:17:48.769Z,12.50
2022-10-20T13:20:41.532Z,12.50
2022-10-20T13:23:30.811Z,12.50
2022-10-20T13:26:21.463Z,12.50
2022-10-20T13:29:15.358Z,12.50
2022-10-20T13:35:08.083Z,12.40
2022-10-20T13:38:00.512Z,12.40
2022-10-20T13:40:52.659Z,12.40
2022-10-20T13:43:43.438Z,12.40
2022-10-20T13:46:45.120Z,12.40
2022-10-20T13:49:40.347Z,12.30
2022-10-20T13:52:29.294Z,12.40
2022-10-20T13:55:19.713Z,12.40
2022-10-20T13:58:09.684Z,12.40
2022-10-20T14:00:59.884Z,12.40
2022-10-20T14:03:49.145Z,12.30
2022-10-20T14:06:37.913Z,12.40
2022-10-20T14:09:26.353Z,12.40
2022-10-20T14:12:17.031Z,12.30
2022-10-20T14:15:06.679Z,12.30
2022-10-20T14:17:58.952Z,12.40
2022-10-20T14:20:54.598Z,12.30
2022-10-20T14:23:43.828Z,12.30
2022-10-20T14:26:32.384Z,12.30
2022-10-20T14:29:22.493Z,12.30
2022-10-20T14:32:15.738Z,12.30
2022-10-20T14:35:05.166Z,12.30
2022-10-20T14:37:56.538Z,12.30
2022-10-20T14:40:49.901Z,12.30
2022-10-20T14:43:40.088Z,12.30
2022-10-20T14:46:29.923Z,12.30
2022-10-20T14:49:18.906Z,12.30
2022-10-20T14:52:11.121Z,12.30
2022-10-20T14:55:02.169Z,12.20
2022-10-20T14:57:50.259Z,12.20
2022-10-20T15:00:38.322Z,12.20
2022-10-20T15:03:26.303Z,12.20
2022-10-20T15:06:17.898Z,12.10
2022-10-20T15:09:06.093Z,12.20
2022-10-20T15:11:55.454Z,12.10
2022-10-20T15:14:44.913Z,12.20
2022-10-20T15:17:33.801Z,12.10
2022-10-20T15:20:37.411Z,12.10
2022-10-20T15:23:25.947Z,12.10
2022-10-20T15:26:14.470Z,12.10
2022-10-20T15:29:04.281Z,12.10
2022-10-20T15:31:52.404Z,12.10
2022-10-20T15:34:40.222Z,12.00
2022-10-20T15:37:28.079Z,12.00
2022-10-20T15:40:15.977Z,12.00
2022-10-20T15:43:03.862Z,12.00
2022-10-20T15:45:54.965Z,12.00
2022-10-20T15:48:43.211Z,12.00
2022-10-20T15:51:32.103Z,12.00
2022-10-20T15:54:22.454Z,12.00
2022-10-20T15:57:10.342Z,12.00
2022-10-20T15:59:58.245Z,12.00
2022-10-20T16:02:47.481Z,12.00
2022-10-20T16:05:35.451Z,12.00
2022-10-20T16:08:23.376Z,12.00
2022-10-20T16:11:11.348Z,12.00
2022-10-20T16:13:59.545Z,12.00
2022-10-20T16:16:47.444Z,11.90
2022-10-20T16:19:36.755Z,11.90
2022-10-20T16:22:24.642Z,12.00
2022-10-20T16:25:12.585Z,11.90
2022-10-20T16:28:01.169Z,11.90
2022-10-20T16:30:49.044Z,11.90
2022-10-20T16:33:37.324Z,11.90
2022-10-20T16:36:26.637Z,11.90
2022-10-20T16:39:17.180Z,11.90
2022-10-20T16:42:05.182Z,11.90
2022-10-20T16:44:53.041Z,11.90
2022-10-20T16:47:40.922Z,11.90
2022-10-20T16:50:28.819Z,11.80
2022-10-20T16:53:18.038Z,11.80
2022-10-20T16:56:06.237Z,11.90
2022-10-20T16:58:54.141Z,11.90
2022-10-20T17:01:42.042Z,11.90
2022-10-20T17:04:30.009Z,11.90
2022-10-20T17:07:18.096Z,11.90
2022-10-20T17:10:07.995Z,11.90
2022-10-20T17:12:55.839Z,11.90
2022-10-20T17:15:43.900Z,11.90
2022-10-20T17:18:31.856Z,11.90
2022-10-20T17:21:20.089Z,11.90
2022-10-20T17:24:10.313Z,11.90
2022-10-20T17:26:59.595Z,12.00
2022-10-20T17:29:48.258Z,11.90
2022-10-20T17:32:36.851Z,11.90
2022-10-20T17:35:24.962Z,11.90
2022-10-20T17:38:12.826Z,11.90
2022-10-20T17:41:03.540Z,11.90
2022-10-20T17:43:52.747Z,11.90
2022-10-20T17:46:42.642Z,11.90
2022-10-20T17:49:30.465Z,11.90
2022-10-20T17:52:18.308Z,11.90
2022-10-20T17:55:06.522Z,11.80
2022-10-20T17:57:54.434Z,11.90
2022-10-20T18:00:56.014Z,11.90
2022-10-20T18:03:45.532Z,11.90
2022-10-20T18:06:34.878Z,11.90
2022-10-20T18:09:23.090Z,11.80
2022-10-20T18:12:11.028Z,11.80
2022-10-20T18:14:58.881Z,11.80
2022-10-20T18:17:48.157Z,11.80
2022-10-20T18:20:36.072Z,11.80
2022-10-20T18:23:24.183Z,11.80
2022-10-20T18:26:13.165Z,11.90
2022-10-20T18:29:01.892Z,11.90
2022-10-20T18:31:51.321Z,11.90
2022-10-20T18:34:41.490Z,11.90
2022-10-20T18:37:29.374Z,11.90
2022-10-20T18:40:17.249Z,11.90
2022-10-20T18:43:05.315Z,11.90
2022-10-20T18:45:53.270Z,11.90
2022-10-20T18:48:41.574Z,11.90
2022-10-20T18:51:30.963Z,11.90
2022-10-20T18:54:19.160Z,11.90
2022-10-20T18:57:07.028Z,11.90
2022-10-20T18:59:54.882Z,11.90
2022-10-20T19:02:44.809Z,11.90
2022-10-20T19:05:36.937Z,12.00
2022-10-20T19:08:26.157Z,12.00
2022-10-20T19:11:16.612Z,12.00
2022-10-20T19:14:04.615Z,12.00
2022-10-20T19:16:53.368Z,12.00
2022-10-20T19:19:41.875Z,12.00
2022-10-20T19:22:33.279Z,12.00
2022-10-20T19:25:22.760Z,12.00
2022-10-20T19:28:12.708Z,12.00
2022-10-20T19:31:00.835Z,12.00
2022-10-20T19:33:49.104Z,12.00
2022-10-20T19:36:37.061Z,12.00
2022-10-20T19:39:27.390Z,12.00
2022-10-20T19:42:16.933Z,12.00
2022-10-20T19:45:05.237Z,12.00
2022-10-20T19:47:53.195Z,12.00
2022-10-20T19:50:41.096Z,12.00
2022-10-20T19:53:29.028Z,12.00
2022-10-20T19:56:17.163Z,12.00
2022-10-20T19:59:06.759Z,12.00
2022-10-20T20:01:55.454Z,12.00
2022-10-20T20:04:43.727Z,12.00
2022-10-20T20:07:32.879Z,12.10
2022-10-20T20:10:20.907Z,12.10
2022-10-20T20:13:08.852Z,12.10
2022-10-20T20:15:58.089Z,12.10
2022-10-20T20:18:46.137Z,12.10
2022-10-20T20:21:34.079Z,12.20
2022-10-20T20:24:22.628Z,12.10
2022-10-20T20:27:10.783Z,12.10
2022-10-20T20:29:59.242Z,12.10
2022-10-20T20:32:50.765Z,12.10
2022-10-20T20:35:40.040Z,12.10
2022-10-20T20:38:28.446Z,12.10
2022-10-20T20:41:17.345Z,12.10
2022-10-20T20:44:08.315Z,12.10
2022-10-20T20:46:56.607Z,12.10
2022-10-20T20:49:45.929Z,12.10
2022-10-20T20:52:33.851Z,12.10
2022-10-20T20:55:21.774Z,12.10
2022-10-20T20:58:09.642Z,12.20
2022-10-20T21:01:08.013Z,12.20
2022-10-20T21:03:56.086Z,12.20
2022-10-20T21:09:53.424Z,12.20
2022-10-20T21:12:41.716Z,12.20
2022-10-20T21:15:29.756Z,12.20
2022-10-20T21:18:17.787Z,12.20
2022-10-20T21:24:04.420Z,12.30
2022-10-20T21:26:52.309Z,12.30
2022-10-20T21:29:45.490Z,12.30
2022-10-20T21:32:34.457Z,12.30
2022-10-20T21:35:22.728Z,12.30
2022-10-20T21:38:10.669Z,12.30
2022-10-20T21:41:04.146Z,12.30
2022-10-20T21:43:52.746Z,12.30
2022-10-20T21:46:42.111Z,12.30
2022-10-20T21:49:29.972Z,12.30
2022-10-20T21:52:17.847Z,12.30
2022-10-20T21:55:06.245Z,12.30
2022-10-20T21:57:55.544Z,12.30
2022-10-20T22:00:43.522Z,12.30
2022-10-20T22:06:25.131Z,12.30
2022-10-20T22:09:13.530Z,12.30
2022-10-20T22:12:01.467Z,12.30
2022-10-20T22:14:50.710Z,12.40
2022-10-20T22:17:39.120Z,12.50
2022-10-20T22:20:27.246Z,12.40
2022-10-20T22:23:15.109Z,12.40
2022-10-20T22:26:03.337Z,12.40
2022-10-20T22:28:51.294Z,12.50
2022-10-20T22:31:40.875Z,12.50
2022-10-20T22:34:28.869Z,12.50
2022-10-20T22:37:16.746Z,12.50
2022-10-20T22:40:04.913Z,12.50
2022-10-20T22:42:52.794Z,12.50
2022-10-20T22:45:40.723Z,12.50
2022-10-20T22:48:29.969Z,12.50
2022-10-20T22:51:17.883Z,12.60
2022-10-20T22:54:05.695Z,12.60
2022-10-20T22:56:53.849Z,12.50
2022-10-20T22:59:41.759Z,12.60
2022-10-20T23:02:29.982Z,12.50
2022-10-20T23:05:19.306Z,12.60
2022-10-20T23:08:07.212Z,12.60
2022-10-20T23:10:58.514Z,12.60
2022-10-20T23:13:47.158Z,12.60
2022-10-20T23:16:35.025Z,12.60
2022-10-20T23:19:22.870Z,12.60
2022-10-20T23:22:12.132Z,12.60
2022-10-20T23:25:00.013Z,12.60
2022-10-20T23:27:47.905Z,12.60
2022-10-20T23:30:35.819Z,12.60
2022-10-20T23:33:23.741Z,12.60
2022-10-20T23:36:12.106Z,12.60
2022-10-20T23:39:01.419Z,12.60
2022-10-20T23:41:49.315Z,12.70
2022-10-20T23:44:37.168Z,12.70
2022-10-20T23:47:25.060Z,12.70
2022-10-20T23:50:13.058Z,12.70
2022-10-20T23:53:00.997Z,12.70
2022-10-20T23:55:50.282Z,12.70
2022-10-20T23:58:38.210Z,12.70
